createdAt,value
2022-10-29T00:01:47.757Z,17.42
2022-10-29T00:04:17.401Z,17.23
2022-10-29T00:06:47.023Z,24.35
2022-10-29T00:09:16.793Z,19.50
2022-10-29T00:11:46.316Z,23.65
2022-10-29T00:14:15.825Z,20.08
2022-10-29T00:16:45.352Z,18.65
2022-10-29T00:19:14.858Z,16.10
2022-10-29T00:21:44.379Z,22.90
2022-10-29T00:24:14.056Z,17.90
2022-10-29T00:26:43.688Z,20.52
2022-10-29T00:29:13.229Z,17.25
2022-10-29T00:31:43.206Z,19.85
2022-10-29T00:34:12.900Z,18.35
2022-10-29T00:36:42.387Z,18.42
2022-10-29T00:39:19.657Z,21.65
2022-10-29T00:41:49.173Z,20.90
2022-10-29T00:44:33.568Z,21.20
2022-10-29T00:47:39.170Z,20.08
2022-10-29T00:50:13.517Z,21.50
2022-10-29T00:52:47.641Z,22.88
2022-10-29T00:55:18.047Z,21.48
2022-10-29T00:57:53.535Z,21.02
2022-10-29T01:00:23.905Z,17.65
2022-10-29T01:02:53.670Z,21.15
2022-10-29T01:05:27.594Z,18.25
2022-10-29T01:07:57.105Z,24.15
2022-10-29T01:10:50.877Z,18.95
2022-10-29T01:13:55.582Z,20.10
2022-10-29T01:16:49.470Z,24.27
2022-10-29T01:19:58.104Z,23.20
2022-10-29T01:22:51.231Z,22.25
2022-10-29T01:25:47.800Z,22.15
2022-10-29T01:28:56.728Z,20.42
2022-10-29T01:31:45.446Z,20.92
2022-10-29T01:34:32.859Z,19.52
2022-10-29T01:37:19.555Z,17.95
2022-10-29T01:40:19.021Z,21.63
2022-10-29T01:42:55.935Z,22.52
2022-10-29T01:45:35.898Z,20.80
2022-10-29T01:48:12.325Z,18.25
2022-10-29T01:50:45.298Z,19.25
2022-10-29T01:53:15.530Z,18.77
2022-10-29T01:55:45.285Z,19.48
2022-10-29T02:01:20.675Z,17.75
2022-10-29T02:04:15.443Z,21.42
2022-10-29T02:07:00.795Z,17.73
2022-10-29T02:09:44.067Z,23.90
2022-10-29T02:12:28.826Z,18.38
2022-10-29T02:15:14.569Z,20.88
2022-10-29T02:17:44.459Z,22.05
2022-10-29T02:20:16.240Z,15.27
2022-10-29T02:22:46.777Z,20.77
2022-10-29T02:25:16.722Z,16.75
2022-10-29T02:27:46.587Z,16.02
2022-10-29T02:30:17.292Z,18.55
2022-10-29T02:32:46.885Z,12.85
2022-10-29T02:35:16.484Z,18.63
2022-10-29T02:37:46.095Z,18.58
2022-10-29T02:40:15.942Z,20.20
2022-10-29T02:42:45.885Z,19.83
2022-10-29T02:45:15.452Z,14.50
2022-10-29T02:47:44.989Z,18.58
2022-10-29T02:50:14.606Z,19.63
2022-10-29T02:52:44.212Z,19.05
2022-10-29T02:55:13.652Z,15.13
2022-10-29T02:57:46.588Z,16.13
2022-10-29T03:00:16.749Z,14.73
2022-10-29T03:02:46.596Z,16.05
2022-10-29T03:05:16.194Z,17.67
2022-10-29T03:07:45.736Z,21.95
2022-10-29T03:10:15.237Z,18.55
2022-10-29T03:12:44.804Z,17.67
2022-10-29T03:15:14.293Z,20.88
2022-10-29T03:17:43.814Z,20.15
2022-10-29T03:20:13.554Z,14.57
2022-10-29T03:22:43.094Z,18.17
2022-10-29T03:25:12.883Z,15.60
2022-10-29T03:27:46.806Z,18.55
2022-10-29T03:30:18.809Z,19.73
2022-10-29T03:32:49.825Z,21.27
2022-10-29T03:35:19.341Z,20.08
2022-10-29T03:37:52.699Z,22.58
2022-10-29T03:40:22.563Z,18.38
2022-10-29T03:42:52.101Z,17.55
2022-10-29T03:45:21.608Z,23.80
2022-10-29T03:47:51.131Z,16.13
2022-10-29T03:50:20.930Z,17.52
2022-10-29T03:52:50.516Z,18.50
2022-10-29T03:55:20.055Z,15.98
2022-10-29T03:57:49.587Z,16.80
2022-10-29T04:00:19.328Z,16.52
2022-10-29T04:02:49.100Z,16.45
2022-10-29T04:05:18.647Z,21.45
2022-10-29T04:07:48.494Z,19.23
2022-10-29T04:10:18.061Z,13.02
2022-10-29T04:12:48.450Z,19.02
2022-10-29T04:15:18.065Z,15.23
2022-10-29T04:17:47.605Z,24.10
2022-10-29T04:20:41.308Z,18.52
2022-10-29T04:24:12.249Z,25.60
2022-10-29T04:28:52.830Z,17.98
2022-10-29T04:31:22.640Z,16.85
2022-10-29T04:33:56.001Z,17.30
2022-10-29T04:36:25.878Z,18.75
2022-10-29T04:38:55.704Z,16.90
2022-10-29T04:41:25.534Z,17.00
2022-10-29T04:43:55.412Z,14.52
2022-10-29T04:46:25.334Z,14.85
2022-10-29T04:48:55.243Z,15.48
2022-10-29T04:51:27.312Z,13.20
2022-10-29T04:53:57.167Z,12.32
2022-10-29T04:56:27.090Z,15.85
2022-10-29T04:58:56.894Z,14.18
2022-10-29T05:01:26.936Z,16.90
2022-10-29T05:03:59.872Z,13.27
2022-10-29T05:06:30.152Z,12.57
2022-10-29T05:09:00.054Z,14.95
2022-10-29T05:11:29.994Z,13.63
2022-10-29T05:13:59.847Z,18.42
2022-10-29T05:16:29.642Z,14.93
2022-10-29T05:18:59.487Z,15.63
2022-10-29T05:21:29.569Z,16.10
2022-10-29T05:23:59.508Z,19.95
2022-10-29T05:26:31.854Z,11.55
2022-10-29T05:29:01.993Z,11.77
2022-10-29T05:31:32.389Z,16.70
2022-10-29T05:34:02.213Z,18.10
2022-10-29T05:36:31.686Z,12.85
2022-10-29T05:39:01.296Z,14.55
2022-10-29T05:41:30.935Z,13.13
2022-10-29T05:44:00.449Z,15.98
2022-10-29T05:46:30.020Z,16.10
2022-10-29T05:48:59.926Z,11.25
2022-10-29T05:51:29.492Z,14.15
2022-10-29T05:53:58.981Z,13.80
2022-10-29T05:56:28.894Z,12.68
2022-10-29T05:58:58.390Z,15.60
2022-10-29T06:01:27.905Z,11.73
2022-10-29T06:03:57.535Z,12.70
2022-10-29T06:06:27.039Z,12.75
2022-10-29T06:08:56.609Z,16.40
2022-10-29T06:11:26.161Z,15.40
2022-10-29T06:13:58.908Z,15.32
2022-10-29T06:16:28.366Z,14.10
2022-10-29T06:18:58.252Z,17.10
2022-10-29T06:21:27.759Z,13.63
2022-10-29T06:23:57.412Z,15.40
2022-10-29T06:26:26.899Z,15.63
2022-10-29T06:28:56.423Z,17.10
2022-10-29T06:31:26.893Z,14.55
2022-10-29T06:33:57.576Z,14.32
2022-10-29T06:36:27.107Z,16.75
2022-10-29T06:38:57.631Z,18.35
2022-10-29T06:41:28.777Z,14.52
2022-10-29T06:43:58.291Z,17.58
2022-10-29T06:46:27.841Z,14.90
2022-10-29T06:48:57.453Z,13.25
2022-10-29T06:51:26.969Z,23.05
2022-10-29T06:53:56.593Z,18.98
2022-10-29T06:56:26.150Z,14.80
2022-10-29T06:58:55.687Z,17.17
2022-10-29T07:01:27.704Z,15.43
2022-10-29T07:04:06.881Z,12.88
2022-10-29T07:06:36.895Z,18.98
2022-10-29T07:09:06.511Z,13.48
2022-10-29T07:11:36.011Z,14.13
2022-10-29T07:14:07.538Z,13.00
2022-10-29T07:16:37.806Z,15.93
2022-10-29T07:19:07.461Z,16.33
2022-10-29T07:21:40.004Z,12.52
2022-10-29T07:24:09.865Z,15.05
2022-10-29T07:26:40.529Z,18.48
2022-10-29T07:29:11.147Z,15.30
2022-10-29T07:31:41.084Z,13.38
2022-10-29T07:34:11.093Z,12.73
2022-10-29T07:36:40.996Z,15.85
2022-10-29T07:39:10.869Z,15.27
2022-10-29T07:41:40.714Z,13.20
2022-10-29T07:44:10.704Z,25.38
2022-10-29T07:46:40.622Z,14.13
2022-10-29T07:49:10.553Z,15.80
2022-10-29T07:51:40.441Z,12.25
2022-10-29T07:54:14.576Z,13.13
2022-10-29T07:56:47.601Z,19.33
2022-10-29T07:59:19.429Z,15.48
2022-10-29T08:01:49.519Z,16.80
2022-10-29T08:04:19.599Z,15.52
2022-10-29T08:06:49.502Z,14.18
2022-10-29T08:09:19.309Z,18.08
2022-10-29T08:11:49.178Z,14.02
2022-10-29T08:14:21.746Z,12.77
2022-10-29T08:16:54.971Z,13.85
2022-10-29T08:19:25.249Z,13.77
2022-10-29T08:21:55.069Z,21.52
2022-10-29T08:24:25.441Z,14.48
2022-10-29T08:26:57.975Z,15.68
2022-10-29T08:29:28.792Z,16.38
2022-10-29T08:31:59.041Z,16.02
2022-10-29T08:34:28.871Z,15.10
2022-10-29T08:36:58.775Z,13.57
2022-10-29T08:39:28.571Z,17.98
2022-10-29T08:42:24.578Z,13.48
2022-10-29T08:45:33.210Z,16.27
2022-10-29T08:48:27.045Z,23.30
2022-10-29T08:51:05.628Z,14.75
2022-10-29T08:53:45.375Z,17.65
2022-10-29T08:56:27.233Z,16.02
2022-10-29T08:59:18.209Z,15.35
2022-10-29T09:01:48.623Z,13.20
2022-10-29T09:04:26.814Z,19.05
2022-10-29T09:07:23.916Z,19.65
2022-10-29T09:10:27.801Z,14.90
2022-10-29T09:13:31.883Z,13.40
2022-10-29T09:16:23.580Z,15.93
2022-10-29T09:19:28.108Z,16.98
2022-10-29T09:22:28.540Z,15.55
2022-10-29T09:25:33.927Z,14.02
2022-10-29T09:28:28.668Z,17.58
2022-10-29T09:31:26.209Z,19.55
2022-10-29T09:34:00.877Z,15.40
2022-10-29T09:36:35.488Z,14.73
2022-10-29T09:39:30.308Z,16.90
2022-10-29T09:42:10.496Z,17.85
2022-10-29T09:44:55.735Z,16.33
2022-10-29T09:47:53.294Z,14.77
2022-10-29T09:50:35.279Z,17.75
2022-10-29T09:53:05.331Z,18.15
2022-10-29T09:55:46.446Z,18.15
2022-10-29T09:58:27.115Z,16.40
2022-10-29T10:00:58.857Z,19.33
2022-10-29T10:03:38.872Z,17.17
2022-10-29T10:06:10.896Z,20.05
2022-10-29T10:09:07.228Z,18.83
2022-10-29T10:11:41.914Z,17.23
2022-10-29T10:14:23.721Z,16.92
2022-10-29T10:17:09.202Z,19.27
2022-10-29T10:19:47.043Z,16.70
2022-10-29T10:22:26.488Z,16.92
2022-10-29T10:24:56.405Z,16.90
2022-10-29T10:27:33.319Z,18.30
2022-10-29T10:30:25.230Z,19.63
2022-10-29T10:32:55.360Z,23.90
2022-10-29T10:35:31.929Z,20.65
2022-10-29T10:38:14.495Z,18.85
2022-10-29T10:40:45.249Z,17.90
2022-10-29T10:43:25.519Z,18.70
2022-10-29T10:46:00.090Z,18.90
2022-10-29T10:48:33.788Z,24.98
2022-10-29T10:51:30.448Z,21.58
2022-10-29T10:54:02.393Z,20.35
2022-10-29T10:56:32.826Z,19.77
2022-10-29T10:59:15.290Z,22.58
2022-10-29T11:01:48.371Z,20.67
2022-10-29T11:04:31.344Z,24.25
2022-10-29T11:07:04.613Z,27.60
2022-10-29T11:09:48.653Z,21.08
2022-10-29T11:12:48.870Z,25.10
2022-10-29T11:15:35.508Z,22.45
2022-10-29T11:18:24.078Z,25.02
2022-10-29T11:21:11.686Z,28.55
2022-10-29T11:24:14.250Z,24.85
2022-10-29T11:27:05.028Z,21.13
2022-10-29T11:30:13.735Z,20.88
2022-10-29T11:33:00.723Z,22.25
2022-10-29T11:35:57.449Z,23.00
2022-10-29T11:38:47.489Z,25.65
2022-10-29T11:41:44.842Z,23.40
2022-10-29T11:44:17.393Z,32.13
2022-10-29T11:47:23.002Z,21.98
2022-10-29T11:50:18.961Z,20.67
2022-10-29T11:53:09.889Z,21.38
2022-10-29T11:56:10.969Z,21.00
2022-10-29T11:58:59.466Z,21.77
2022-10-29T12:01:54.075Z,24.17
2022-10-29T12:04:36.864Z,23.40
2022-10-29T12:07:34.805Z,26.75
2022-10-29T12:10:33.294Z,21.23
2022-10-29T12:13:31.468Z,31.70
2022-10-29T12:16:16.548Z,36.85
2022-10-29T12:19:13.205Z,43.58
2022-10-29T12:22:10.692Z,57.60
2022-10-29T12:25:09.795Z,76.47
2022-10-29T12:28:21.229Z,77.45
2022-10-29T12:31:22.955Z,79.60
2022-10-29T12:34:08.551Z,81.95
2022-10-29T12:37:05.602Z,75.90
2022-10-29T12:39:42.519Z,89.00
2022-10-29T12:42:31.887Z,84.25
2022-10-29T12:45:59.533Z,88.65
2022-10-29T12:49:03.903Z,86.88
2022-10-29T12:51:52.364Z,83.40
2022-10-29T12:54:43.993Z,79.22
2022-10-29T12:57:34.541Z,81.75
2022-10-29T13:00:34.567Z,74.55
2022-10-29T13:03:04.992Z,66.70
2022-10-29T13:05:41.613Z,72.18
2022-10-29T13:08:20.760Z,59.88
2022-10-29T13:10:53.575Z,63.72
2022-10-29T13:13:37.462Z,57.53
2022-10-29T13:16:18.349Z,54.70
2022-10-29T13:19:10.626Z,57.42
2022-10-29T13:22:01.354Z,55.85
2022-10-29T13:24:31.924Z,49.28
2022-10-29T13:27:22.650Z,43.35
2022-10-29T13:30:13.695Z,46.25
2022-10-29T13:32:43.227Z,44.50
2022-10-29T13:35:47.330Z,33.70
2022-10-29T13:38:17.834Z,37.38
2022-10-29T13:41:09.767Z,40.20
2022-10-29T13:43:39.755Z,38.28
2022-10-29T13:46:31.343Z,43.60
2022-10-29T13:49:05.347Z,36.55
2022-10-29T13:51:46.666Z,35.42
2022-10-29T13:54:29.378Z,42.42
2022-10-29T13:57:10.335Z,36.40
2022-10-29T14:00:02.535Z,36.30
2022-10-29T14:03:14.948Z,34.45
2022-10-29T14:05:55.253Z,35.58
2022-10-29T14:08:37.397Z,41.03
2022-10-29T14:11:29.018Z,32.35
2022-10-29T14:14:04.837Z,35.72
2022-10-29T14:16:35.650Z,34.60
2022-10-29T14:19:24.970Z,35.13
2022-10-29T14:21:56.953Z,40.70
2022-10-29T14:24:26.711Z,35.38
2022-10-29T14:27:09.335Z,32.95
2022-10-29T14:29:40.006Z,38.25
2022-10-29T14:32:20.229Z,32.75
2022-10-29T14:34:54.093Z,37.55
2022-10-29T14:37:37.149Z,33.70
2022-10-29T14:40:17.686Z,36.65
2022-10-29T14:42:57.056Z,37.70
2022-10-29T14:45:30.076Z,39.58
2022-10-29T14:48:13.405Z,38.88
2022-10-29T14:50:52.172Z,33.00
2022-10-29T14:53:34.016Z,34.60
2022-10-29T14:56:10.352Z,30.58
2022-10-29T14:58:40.956Z,34.63
2022-10-29T15:01:17.896Z,34.08
2022-10-29T15:03:48.310Z,36.72
2022-10-29T15:06:27.192Z,27.25
2022-10-29T15:09:02.835Z,32.85
2022-10-29T15:11:41.633Z,36.05
2022-10-29T15:14:38.454Z,31.10
2022-10-29T15:17:22.913Z,35.70
2022-10-29T15:20:03.277Z,32.67
2022-10-29T15:22:37.611Z,33.60
2022-10-29T15:25:10.601Z,29.48
2022-10-29T15:27:42.060Z,31.92
2022-10-29T15:30:22.003Z,29.13
2022-10-29T15:32:51.930Z,32.05
2022-10-29T15:35:23.420Z,28.63
2022-10-29T15:37:53.335Z,29.40
2022-10-29T15:40:25.681Z,30.90
2022-10-29T15:42:56.078Z,30.63
2022-10-29T15:45:28.850Z,32.05
2022-10-29T15:48:19.666Z,29.70
2022-10-29T15:50:49.557Z,35.15
2022-10-29T15:53:19.725Z,35.65
2022-10-29T15:55:55.333Z,40.65
2022-10-29T15:58:26.045Z,34.80
2022-10-29T16:00:55.898Z,33.00
2022-10-29T16:03:28.067Z,30.05
2022-10-29T16:06:03.474Z,35.70
2022-10-29T16:09:01.499Z,37.25
2022-10-29T16:11:31.373Z,34.17
2022-10-29T16:14:01.980Z,37.95
2022-10-29T16:16:34.321Z,35.90
2022-10-29T16:19:04.943Z,32.38
2022-10-29T16:21:35.036Z,36.00
2022-10-29T16:24:04.956Z,33.17
2022-10-29T16:26:35.834Z,27.20
2022-10-29T16:29:05.831Z,30.00
2022-10-29T16:31:35.934Z,36.53
2022-10-29T16:34:07.731Z,31.50
2022-10-29T16:36:37.593Z,33.28
2022-10-29T16:39:09.027Z,30.70
2022-10-29T16:41:38.874Z,26.75
2022-10-29T16:44:08.787Z,29.30
2022-10-29T16:46:38.594Z,31.50
2022-10-29T16:49:09.060Z,32.55
2022-10-29T16:51:38.892Z,29.48
2022-10-29T16:54:08.834Z,30.55
2022-10-29T16:56:38.693Z,32.75
2022-10-29T16:59:08.637Z,31.52
2022-10-29T17:01:38.545Z,26.63
2022-10-29T17:04:09.871Z,27.80
2022-10-29T17:06:39.735Z,30.63
2022-10-29T17:09:09.628Z,29.80
2022-10-29T17:11:39.513Z,35.22
2022-10-29T17:14:09.646Z,29.73
2022-10-29T17:16:39.517Z,35.90
2022-10-29T17:19:09.452Z,30.48
2022-10-29T17:21:39.398Z,34.13
2022-10-29T17:24:09.554Z,31.35
2022-10-29T17:26:39.484Z,30.67
2022-10-29T17:29:09.465Z,31.90
2022-10-29T17:31:39.629Z,30.58
2022-10-29T17:34:09.513Z,34.65
2022-10-29T17:36:42.627Z,33.97
2022-10-29T17:39:13.360Z,29.27
2022-10-29T17:41:43.259Z,30.23
2022-10-29T17:44:13.130Z,31.17
2022-10-29T17:46:43.090Z,34.00
2022-10-29T17:49:13.530Z,34.95
2022-10-29T17:51:43.320Z,46.30
2022-10-29T17:54:18.431Z,33.78
2022-10-29T17:56:48.252Z,29.95
2022-10-29T17:59:18.033Z,33.80
2022-10-29T18:01:47.982Z,30.30
2022-10-29T18:04:18.027Z,35.17
2022-10-29T18:06:47.947Z,30.27
2022-10-29T18:09:20.351Z,35.03
2022-10-29T18:11:52.030Z,33.65
2022-10-29T18:14:21.875Z,28.80
2022-10-29T18:16:51.713Z,30.65
2022-10-29T18:19:21.769Z,28.80
2022-10-29T18:21:52.354Z,31.50
2022-10-29T18:24:23.986Z,32.78
2022-10-29T18:26:54.333Z,34.55
2022-10-29T18:29:24.271Z,34.78
2022-10-29T18:31:53.779Z,36.40
2022-10-29T18:34:23.625Z,40.13
2022-10-29T18:36:53.187Z,42.17
2022-10-29T18:39:22.685Z,49.42
2022-10-29T18:41:52.211Z,40.58
2022-10-29T18:44:21.823Z,38.05
2022-10-29T18:46:51.421Z,48.97
2022-10-29T18:49:21.891Z,41.55
2022-10-29T18:51:52.225Z,40.10
2022-10-29T18:54:22.235Z,44.25
2022-10-29T18:56:52.168Z,43.63
2022-10-29T18:59:23.167Z,49.50
2022-10-29T19:01:53.239Z,34.55
2022-10-29T19:04:23.293Z,34.13
2022-10-29T19:06:53.106Z,42.47
2022-10-29T19:09:22.960Z,40.22
2022-10-29T19:11:56.731Z,36.08
2022-10-29T19:14:29.277Z,36.83
2022-10-29T19:16:59.212Z,30.80
2022-10-29T19:19:29.148Z,35.75
2022-10-29T19:21:59.107Z,33.28
2022-10-29T19:24:28.965Z,35.10
2022-10-29T19:26:58.871Z,37.30
2022-10-29T19:29:28.937Z,30.65
2022-10-29T19:31:59.276Z,28.20
2022-10-29T19:34:28.891Z,33.83
2022-10-29T19:36:58.480Z,30.63
2022-10-29T19:39:27.971Z,37.05
2022-10-29T19:41:57.500Z,35.05
2022-10-29T19:44:27.027Z,31.25
2022-10-29T19:46:56.594Z,35.00
2022-10-29T19:49:26.115Z,34.28
2022-10-29T19:51:58.069Z,32.65
2022-10-29T19:54:27.613Z,34.95
2022-10-29T19:56:57.203Z,35.35
2022-10-29T19:59:26.759Z,30.58
2022-10-29T20:01:56.391Z,32.38
2022-10-29T20:04:25.995Z,36.67
2022-10-29T20:06:55.545Z,34.92
2022-10-29T20:09:25.123Z,34.67
2022-10-29T20:11:54.712Z,26.98
2022-10-29T20:14:28.762Z,37.28
2022-10-29T20:16:58.612Z,33.38
2022-10-29T20:19:28.161Z,33.30
2022-10-29T20:21:57.839Z,31.42
2022-10-29T20:24:27.400Z,37.20
2022-10-29T20:26:56.876Z,36.42
2022-10-29T20:29:26.510Z,39.17
2022-10-29T20:31:56.490Z,40.63
2022-10-29T20:34:26.506Z,38.30
2022-10-29T20:36:56.245Z,51.83
2022-10-29T20:39:30.777Z,47.33
2022-10-29T20:42:02.971Z,54.92
2022-10-29T20:44:32.499Z,59.45
2022-10-29T20:47:02.362Z,61.28
2022-10-29T20:49:31.919Z,48.67
2022-10-29T20:52:01.452Z,57.88
2022-10-29T20:54:30.966Z,53.25
2022-10-29T20:57:00.445Z,46.92
2022-10-29T20:59:29.986Z,53.08
2022-10-29T21:02:00.099Z,59.83
2022-10-29T21:04:29.782Z,57.42
2022-10-29T21:06:59.315Z,49.33
2022-10-29T21:09:28.846Z,48.28
2022-10-29T21:11:58.412Z,49.75
2022-10-29T21:14:29.099Z,39.33
2022-10-29T21:16:58.646Z,40.90
2022-10-29T21:19:29.819Z,46.40
2022-10-29T21:21:59.295Z,39.53
2022-10-29T21:24:28.812Z,37.85
2022-10-29T21:26:58.311Z,34.35
2022-10-29T21:29:28.111Z,32.88
2022-10-29T21:31:58.192Z,41.17
2022-10-29T21:34:27.768Z,34.08
2022-10-29T21:36:57.368Z,32.13
2022-10-29T21:39:28.030Z,35.58
2022-10-29T21:41:58.103Z,35.58
2022-10-29T21:44:27.631Z,33.30
2022-10-29T21:46:57.140Z,35.08
2022-10-29T21:49:26.851Z,32.08
2022-10-29T21:51:56.334Z,32.13
2022-10-29T21:54:28.315Z,37.20
2022-10-29T21:56:58.365Z,37.67
2022-10-29T21:59:27.793Z,35.20
2022-10-29T22:01:57.364Z,32.42
2022-10-29T22:04:27.188Z,36.67
2022-10-29T22:06:57.612Z,38.92
2022-10-29T22:09:27.128Z,35.22
2022-10-29T22:11:56.804Z,38.10
2022-10-29T22:14:26.378Z,45.80
2022-10-29T22:16:58.373Z,33.13
2022-10-29T22:19:27.891Z,35.97
2022-10-29T22:21:57.734Z,38.63
2022-10-29T22:24:27.195Z,37.67
2022-10-29T22:26:56.733Z,39.67
2022-10-29T22:29:26.273Z,41.65
2022-10-29T22:31:56.093Z,39.80
2022-10-29T22:34:26.562Z,36.72
2022-10-29T22:36:56.479Z,39.97
2022-10-29T22:39:28.653Z,37.35
2022-10-29T22:41:58.493Z,34.90
2022-10-29T22:44:28.246Z,38.63
2022-10-29T22:46:58.166Z,40.10
2022-10-29T22:49:28.080Z,41.22
2022-10-29T22:52:00.587Z,35.38
2022-10-29T22:54:31.702Z,36.65
2022-10-29T22:57:01.585Z,35.25
2022-10-29T22:59:31.446Z,36.05
2022-10-29T23:02:01.323Z,32.95
2022-10-29T23:04:31.265Z,35.47
2022-10-29T23:07:02.738Z,37.88
2022-10-29T23:09:32.519Z,36.70
2022-10-29T23:12:02.419Z,37.45
2022-10-29T23:14:32.265Z,38.38
2022-10-29T23:17:02.095Z,40.53
2022-10-29T23:19:32.010Z,39.83
2022-10-29T23:22:01.953Z,38.72
2022-10-29T23:24:31.813Z,34.90
2022-10-29T23:27:01.644Z,35.88
2022-10-29T23:29:31.510Z,37.40
2022-10-29T23:32:01.594Z,37.35
2022-10-29T23:34:31.542Z,39.17
2022-10-29T23:37:03.218Z,37.60
2022-10-29T23:39:35.206Z,37.92
2022-10-29T23:42:04.760Z,33.45
2022-10-29T23:44:34.351Z,33.60
2022-10-29T23:47:03.871Z,40.53
2022-10-29T23:49:33.335Z,36.67
2022-10-29T23:52:02.875Z,39.92
2022-10-29T23:54:32.380Z,35.85
2022-10-29T23:57:01.959Z,39.83
2022-10-29T23:59:31.463Z,38.28
